sensor_id;sensor_type;location;lat;lon;timestamp;pressure;altitude;pressure_sealevel;temperature;humidity
55759;BME280;41678;52.126;20.664;2023-04-24T00:03:36;99454.56;;;12.67;58.41
55759;BME280;41678;52.126;20.664;2023-04-24T00:08:56;99452.16;;;12.59;58.67
55759;BME280;41678;52.126;20.664;2023-04-24T00:14:15;99450.47;;;12.57;58.30
55759;BME280;41678;52.126;20.664;2023-04-24T00:19:35;99445.56;;;12.46;58.52
55759;BME280;41678;52.126;20.664;2023-04-24T00:24:55;99433.47;;;12.39;58.79
55759;BME280;41678;52.126;20.664;2023-04-24T00:30:15;99433.72;;;12.31;59.15
55759;BME280;41678;52.126;20.664;2023-04-24T00:35:34;99430.41;;;12.24;58.81
55759;BME280;41678;52.126;20.664;2023-04-24T00:40:54;99421.97;;;12.13;58.62
55759;BME280;41678;52.126;20.664;2023-04-24T00:46:14;99419.50;;;12.08;58.77
55759;BME280;41678;52.126;20.664;2023-04-24T00:51:34;99411.78;;;12.00;58.92
55759;BME280;41678;52.126;20.664;2023-04-24T00:56:54;99411.88;;;11.97;59.08
55759;BME280;41678;52.126;20.664;2023-04-24T01:02:14;99415.59;;;11.92;58.97
55759;BME280;41678;52.126;20.664;2023-04-24T01:07:35;99408.88;;;11.80;59.43
55759;BME280;41678;52.126;20.664;2023-04-24T01:12:55;99401.13;;;11.75;59.34
55759;BME280;41678;52.126;20.664;2023-04-24T01:18:15;99407.41;;;11.71;59.39
55759;BME280;41678;52.126;20.664;2023-04-24T01:23:35;99410.94;;;11.70;59.35
55759;BME280;41678;52.126;20.664;2023-04-24T01:28:55;99416.22;;;11.70;59.77
55759;BME280;41678;52.126;20.664;2023-04-24T01:34:15;99412.09;;;11.61;59.62
55759;BME280;41678;52.126;20.664;2023-04-24T01:39:36;99412.28;;;11.55;59.76
55759;BME280;41678;52.126;20.664;2023-04-24T01:44:56;99411.63;;;11.46;60.16
55759;BME280;41678;52.126;20.664;2023-04-24T01:50:19;99404.84;;;11.38;60.06
55759;BME280;41678;52.126;20.664;2023-04-24T01:55:38;99392.78;;;11.30;59.81
55759;BME280;41678;52.126;20.664;2023-04-24T02:00:59;99395.66;;;11.23;60.93
55759;BME280;41678;52.126;20.664;2023-04-24T02:06:19;99386.19;;;11.14;60.82
55759;BME280;41678;52.126;20.664;2023-04-24T02:11:39;99382.81;;;11.10;60.61
55759;BME280;41678;52.126;20.664;2023-04-24T02:16:59;99378.69;;;11.00;60.76
55759;BME280;41678;52.126;20.664;2023-04-24T02:22:20;99376.25;;;10.94;60.70
55759;BME280;41678;52.126;20.664;2023-04-24T02:27:39;99367.59;;;10.88;60.53
55759;BME280;41678;52.126;20.664;2023-04-24T02:32:59;99359.00;;;10.82;60.77
55759;BME280;41678;52.126;20.664;2023-04-24T02:38:20;99356.44;;;10.79;60.91
55759;BME280;41678;52.126;20.664;2023-04-24T02:43:40;99352.22;;;10.73;60.58
55759;BME280;41678;52.126;20.664;2023-04-24T02:49:00;99355.88;;;10.67;60.37
55759;BME280;41678;52.126;20.664;2023-04-24T02:54:19;99348.06;;;10.64;60.82
55759;BME280;41678;52.126;20.664;2023-04-24T02:59:39;99349.09;;;10.58;61.06
55759;BME280;41678;52.126;20.664;2023-04-24T03:04:58;99357.88;;;10.57;60.78
55759;BME280;41678;52.126;20.664;2023-04-24T03:10:19;99339.56;;;10.54;60.55
55759;BME280;41678;52.126;20.664;2023-04-24T03:15:39;99342.41;;;10.45;61.00
55759;BME280;41678;52.126;20.664;2023-04-24T03:20:59;99348.59;;;10.44;61.17
55759;BME280;41678;52.126;20.664;2023-04-24T03:26:19;99359.09;;;10.44;61.10
55759;BME280;41678;52.126;20.664;2023-04-24T03:31:52;99361.75;;;10.44;61.27
55759;BME280;41678;52.126;20.664;2023-04-24T03:37:13;99353.06;;;10.40;60.95
55759;BME280;41678;52.126;20.664;2023-04-24T03:42:37;99354.91;;;10.37;61.16
55759;BME280;41678;52.126;20.664;2023-04-24T03:47:57;99354.91;;;10.37;61.34
55759;BME280;41678;52.126;20.664;2023-04-24T03:53:17;99343.56;;;10.33;61.47
55759;BME280;41678;52.126;20.664;2023-04-24T03:58:37;99347.09;;;10.33;61.18
55759;BME280;41678;52.126;20.664;2023-04-24T04:03:58;99346.19;;;10.34;61.34
55759;BME280;41678;52.126;20.664;2023-04-24T04:09:19;99345.22;;;10.37;61.08
55759;BME280;41678;52.126;20.664;2023-04-24T04:14:39;99344.28;;;10.40;61.54
55759;BME280;41678;52.126;20.664;2023-04-24T04:19:59;99343.41;;;10.41;61.56
55759;BME280;41678;52.126;20.664;2023-04-24T04:25:19;99340.69;;;10.44;61.74
55759;BME280;41678;52.126;20.664;2023-04-24T04:30:40;99347.63;;;10.48;62.22
55759;BME280;41678;52.126;20.664;2023-04-24T04:36:00;99348.31;;;10.55;61.57
55759;BME280;41678;52.126;20.664;2023-04-24T04:41:22;99346.44;;;10.58;61.50
55759;BME280;41678;52.126;20.664;2023-04-24T04:46:42;99341.03;;;10.65;61.87
55759;BME280;41678;52.126;20.664;2023-04-24T04:52:14;99339.97;;;10.72;62.14
55759;BME280;41678;52.126;20.664;2023-04-24T04:57:35;99332.75;;;10.79;61.71
55759;BME280;41678;52.126;20.664;2023-04-24T05:02:55;99336.00;;;10.88;61.87
55759;BME280;41678;52.126;20.664;2023-04-24T05:08:16;99332.19;;;10.99;62.30
55759;BME280;41678;52.126;20.664;2023-04-24T05:13:36;99327.50;;;11.10;63.06
55759;BME280;41678;52.126;20.664;2023-04-24T05:18:59;99327.84;;;11.28;62.56
55759;BME280;41678;52.126;20.664;2023-04-24T05:24:24;99332.66;;;11.43;63.02
55759;BME280;41678;52.126;20.664;2023-04-24T05:30:07;99331.69;;;11.74;64.06
55759;BME280;41678;52.126;20.664;2023-04-24T05:35:27;99328.31;;;11.98;62.83
55759;BME280;41678;52.126;20.664;2023-04-24T05:40:46;99329.44;;;12.19;63.28
55759;BME280;41678;52.126;20.664;2023-04-24T05:46:07;99330.91;;;12.53;63.70
55759;BME280;41678;52.126;20.664;2023-04-24T05:51:27;99337.88;;;12.80;63.93
55759;BME280;41678;52.126;20.664;2023-04-24T05:56:49;99326.16;;;13.12;63.92
55759;BME280;41678;52.126;20.664;2023-04-24T06:02:15;99317.38;;;13.34;63.89
55759;BME280;41678;52.126;20.664;2023-04-24T06:07:37;99322.34;;;13.67;63.95
55759;BME280;41678;52.126;20.664;2023-04-24T06:12:59;99310.22;;;13.84;64.02
55759;BME280;41678;52.126;20.664;2023-04-24T06:18:20;99296.47;;;13.96;63.63
55759;BME280;41678;52.126;20.664;2023-04-24T06:23:42;99302.72;;;14.16;63.59
55759;BME280;41678;52.126;20.664;2023-04-24T06:29:01;99297.56;;;14.34;63.82
55759;BME280;41678;52.126;20.664;2023-04-24T06:34:22;99296.69;;;14.54;63.96
55759;BME280;41678;52.126;20.664;2023-04-24T06:39:41;99297.63;;;14.73;63.90
55759;BME280;41678;52.126;20.664;2023-04-24T06:45:02;99290.34;;;14.98;64.10
55759;BME280;41678;52.126;20.664;2023-04-24T06:50:21;99291.09;;;15.21;64.01
55759;BME280;41678;52.126;20.664;2023-04-24T06:55:41;99297.59;;;15.52;63.89
55759;BME280;41678;52.126;20.664;2023-04-24T07:01:02;99300.47;;;15.84;63.77
55759;BME280;41678;52.126;20.664;2023-04-24T07:06:21;99297.56;;;16.08;63.91
55759;BME280;41678;52.126;20.664;2023-04-24T07:11:42;99297.09;;;16.35;63.52
55759;BME280;41678;52.126;20.664;2023-04-24T07:17:03;99308.34;;;16.57;63.66
55759;BME280;41678;52.126;20.664;2023-04-24T07:22:22;99303.84;;;16.76;63.41
55759;BME280;41678;52.126;20.664;2023-04-24T07:27:42;99299.75;;;16.86;64.01
55759;BME280;41678;52.126;20.664;2023-04-24T07:33:02;99309.81;;;16.97;63.79
55759;BME280;41678;52.126;20.664;2023-04-24T07:38:21;99299.16;;;17.15;63.80
55759;BME280;41678;52.126;20.664;2023-04-24T07:43:42;99303.28;;;17.36;63.73
55759;BME280;41678;52.126;20.664;2023-04-24T07:49:01;99294.63;;;17.49;63.88
55759;BME280;41678;52.126;20.664;2023-04-24T07:54:21;99277.41;;;17.70;63.66
55759;BME280;41678;52.126;20.664;2023-04-24T07:59:41;99291.41;;;17.90;63.60
55759;BME280;41678;52.126;20.664;2023-04-24T08:05:01;99282.56;;;18.06;63.40
55759;BME280;41678;52.126;20.664;2023-04-24T08:10:22;99285.06;;;18.23;63.44
55759;BME280;41678;52.126;20.664;2023-04-24T08:15:42;99276.03;;;18.40;63.39
55759;BME280;41678;52.126;20.664;2023-04-24T08:21:01;99283.50;;;18.64;62.94
55759;BME280;41678;52.126;20.664;2023-04-24T08:26:21;99278.00;;;18.82;62.39
55759;BME280;41678;52.126;20.664;2023-04-24T08:31:40;99279.34;;;18.89;62.84
55759;BME280;41678;52.126;20.664;2023-04-24T08:37:00;99285.75;;;19.01;62.49
55759;BME280;41678;52.126;20.664;2023-04-24T08:42:20;99285.53;;;19.04;61.95
55759;BME280;41678;52.126;20.664;2023-04-24T08:47:41;99285.53;;;19.04;61.41
55759;BME280;41678;52.126;20.664;2023-04-24T08:53:01;99285.91;;;18.98;61.67
55759;BME280;41678;52.126;20.664;2023-04-24T08:58:21;99285.16;;;18.96;62.03
55759;BME280;41678;52.126;20.664;2023-04-24T09:03:42;99278.06;;;18.95;61.69
55759;BME280;41678;52.126;20.664;2023-04-24T09:09:02;99281.63;;;18.95;61.60
55759;BME280;41678;52.126;20.664;2023-04-24T09:14:23;99289.91;;;19.05;61.68
55759;BME280;41678;52.126;20.664;2023-04-24T09:19:43;99280.00;;;19.07;61.25
55759;BME280;41678;52.126;20.664;2023-04-24T09:25:07;99276.28;;;19.24;60.91
55759;BME280;41678;52.126;20.664;2023-04-24T09:30:28;99277.69;;;19.30;61.04
55759;BME280;41678;52.126;20.664;2023-04-24T09:35:50;99266.31;;;19.41;61.13
55759;BME280;41678;52.126;20.664;2023-04-24T09:41:13;99257.72;;;19.50;61.51
55759;BME280;41678;52.126;20.664;2023-04-24T09:46:34;99254.34;;;19.61;60.02
55759;BME280;41678;52.126;20.664;2023-04-24T09:52:08;99243.38;;;19.66;60.42
55759;BME280;41678;52.126;20.664;2023-04-24T09:57:28;99244.91;;;19.83;60.55
55759;BME280;41678;52.126;20.664;2023-04-24T10:02:54;99240.28;;;20.00;59.78
55759;BME280;41678;52.126;20.664;2023-04-24T10:08:14;99229.41;;;20.03;59.34
55759;BME280;41678;52.126;20.664;2023-04-24T10:13:33;99226.59;;;20.04;59.49
55759;BME280;41678;52.126;20.664;2023-04-24T10:18:55;99227.47;;;20.18;58.93
55759;BME280;41678;52.126;20.664;2023-04-24T10:24:18;99227.56;;;20.16;58.42
55759;BME280;41678;52.126;20.664;2023-04-24T10:29:41;99223.09;;;20.17;58.07
55759;BME280;41678;52.126;20.664;2023-04-24T10:35:00;99224.72;;;20.19;57.95
55759;BME280;41678;52.126;20.664;2023-04-24T10:40:27;99210.38;;;20.20;57.65
55759;BME280;41678;52.126;20.664;2023-04-24T10:46:01;99222.88;;;20.20;57.27
55759;BME280;41678;52.126;20.664;2023-04-24T10:51:22;99210.91;;;20.26;57.89
55759;BME280;41678;52.126;20.664;2023-04-24T10:56:42;99207.41;;;20.38;56.97
55759;BME280;41678;52.126;20.664;2023-04-24T11:02:01;99208.47;;;20.48;56.73
55759;BME280;41678;52.126;20.664;2023-04-24T11:07:21;99202.22;;;20.61;56.80
55759;BME280;41678;52.126;20.664;2023-04-24T11:12:43;99199.88;;;20.69;55.84
55759;BME280;41678;52.126;20.664;2023-04-24T11:18:02;99194.53;;;20.69;55.35
55759;BME280;41678;52.126;20.664;2023-04-24T11:23:22;99196.66;;;20.77;55.38
55759;BME280;41678;52.126;20.664;2023-04-24T11:28:49;99187.25;;;20.84;54.97
55759;BME280;41678;52.126;20.664;2023-04-24T11:34:13;99180.81;;;20.87;54.06
55759;BME280;41678;52.126;20.664;2023-04-24T11:39:36;99181.16;;;20.95;54.01
55759;BME280;41678;52.126;20.664;2023-04-24T11:44:56;99183.59;;;20.98;53.26
55759;BME280;41678;52.126;20.664;2023-04-24T11:50:17;99176.75;;;20.94;52.91
55759;BME280;41678;52.126;20.664;2023-04-24T11:55:37;99172.88;;;20.98;53.80
55759;BME280;41678;52.126;20.664;2023-04-24T12:00:57;99161.44;;;20.96;53.22
55759;BME280;41678;52.126;20.664;2023-04-24T12:06:18;99162.41;;;20.95;51.37
55759;BME280;41678;52.126;20.664;2023-04-24T12:11:52;99160.91;;;20.91;51.95
55759;BME280;41678;52.126;20.664;2023-04-24T12:17:13;99152.88;;;20.91;51.94
55759;BME280;41678;52.126;20.664;2023-04-24T12:22:52;99161.13;;;20.88;50.09
55759;BME280;41678;52.126;20.664;2023-04-24T12:28:15;99168.31;;;20.74;49.02
55759;BME280;41678;52.126;20.664;2023-04-24T12:33:35;99177.94;;;20.77;49.52
55759;BME280;41678;52.126;20.664;2023-04-24T12:38:55;99192.38;;;20.74;48.30
55759;BME280;41678;52.126;20.664;2023-04-24T12:44:14;99206.97;;;20.57;48.71
55759;BME280;41678;52.126;20.664;2023-04-24T12:49:35;99215.72;;;20.46;48.98
55759;BME280;41678;52.126;20.664;2023-04-24T12:54:56;99230.06;;;20.19;48.97
55759;BME280;41678;52.126;20.664;2023-04-24T13:00:17;99214.81;;;19.94;48.48
55759;BME280;41678;52.126;20.664;2023-04-24T13:05:36;99226.63;;;19.77;47.06
55759;BME280;41678;52.126;20.664;2023-04-24T13:10:56;99208.00;;;19.62;47.92
55759;BME280;41678;52.126;20.664;2023-04-24T13:16:16;99216.28;;;19.45;47.11
55759;BME280;41678;52.126;20.664;2023-04-24T13:21:35;99207.38;;;19.31;48.03
55759;BME280;41678;52.126;20.664;2023-04-24T13:26:55;99198.59;;;19.29;48.20
55759;BME280;41678;52.126;20.664;2023-04-24T13:32:16;99191.56;;;19.28;48.72
55759;BME280;41678;52.126;20.664;2023-04-24T13:37:36;99172.91;;;19.14;48.76
55759;BME280;41678;52.126;20.664;2023-04-24T13:42:56;99167.81;;;18.96;48.15
55759;BME280;41678;52.126;20.664;2023-04-24T13:48:15;99150.97;;;19.23;49.54
55759;BME280;41678;52.126;20.664;2023-04-24T13:53:35;99139.94;;;19.15;49.67
55759;BME280;41678;52.126;20.664;2023-04-24T13:58:57;99126.81;;;19.11;49.56
55759;BME280;41678;52.126;20.664;2023-04-24T14:04:16;99109.34;;;19.20;50.01
55759;BME280;41678;52.126;20.664;2023-04-24T14:09:36;99092.78;;;19.15;49.78
55759;BME280;41678;52.126;20.664;2023-04-24T14:14:56;99094.59;;;19.15;49.96
55759;BME280;41678;52.126;20.664;2023-04-24T14:20:16;99093.06;;;19.10;49.43
55759;BME280;41678;52.126;20.664;2023-04-24T14:25:35;99090.75;;;19.19;49.56
55759;BME280;41678;52.126;20.664;2023-04-24T14:30:55;99075.84;;;19.29;50.46
55759;BME280;41678;52.126;20.664;2023-04-24T14:36:15;99072.75;;;19.35;49.15
55759;BME280;41678;52.126;20.664;2023-04-24T14:41:34;99054.09;;;19.48;48.21
55759;BME280;41678;52.126;20.664;2023-04-24T14:46:54;99063.31;;;19.57;46.68
55759;BME280;41678;52.126;20.664;2023-04-24T14:52:14;99066.28;;;19.65;47.15
55759;BME280;41678;52.126;20.664;2023-04-24T14:57:35;99057.75;;;19.73;47.11
55759;BME280;41678;52.126;20.664;2023-04-24T15:02:55;99054.75;;;19.78;46.68
55759;BME280;41678;52.126;20.664;2023-04-24T15:08:15;99058.91;;;19.82;47.48
55759;BME280;41678;52.126;20.664;2023-04-24T15:13:34;99047.06;;;19.86;46.89
55759;BME280;41678;52.126;20.664;2023-04-24T15:18:54;99036.19;;;19.89;48.15
55759;BME280;41678;52.126;20.664;2023-04-24T15:24:16;99024.84;;;19.99;48.54
55759;BME280;41678;52.126;20.664;2023-04-24T15:29:36;99019.31;;;20.02;48.54
55759;BME280;41678;52.126;20.664;2023-04-24T15:34:57;99010.34;;;20.03;46.80
55759;BME280;41678;52.126;20.664;2023-04-24T15:40:16;98992.59;;;20.02;47.91
55759;BME280;41678;52.126;20.664;2023-04-24T15:45:36;99011.19;;;20.03;48.40
55759;BME280;41678;52.126;20.664;2023-04-24T15:50:56;99000.06;;;19.96;46.95
55759;BME280;41678;52.126;20.664;2023-04-24T15:56:15;98990.44;;;19.94;46.72
55759;BME280;41678;52.126;20.664;2023-04-24T16:01:34;98992.47;;;19.90;47.08
55759;BME280;41678;52.126;20.664;2023-04-24T16:06:54;98992.56;;;19.89;46.43
55759;BME280;41678;52.126;20.664;2023-04-24T16:12:15;98991.09;;;19.98;47.86
55759;BME280;41678;52.126;20.664;2023-04-24T16:17:35;98990.03;;;19.87;47.32
55759;BME280;41678;52.126;20.664;2023-04-24T16:22:55;98986.28;;;19.77;46.85
55759;BME280;41678;52.126;20.664;2023-04-24T16:28:14;98986.28;;;19.77;47.15
55759;BME280;41678;52.126;20.664;2023-04-24T16:33:34;98984.94;;;19.58;46.66
55759;BME280;41678;52.126;20.664;2023-04-24T16:38:54;98985.75;;;19.59;46.46
55759;BME280;41678;52.126;20.664;2023-04-24T16:44:13;98988.56;;;19.57;47.33
55759;BME280;41678;52.126;20.664;2023-04-24T16:49:33;98990.03;;;19.61;47.78
55759;BME280;41678;52.126;20.664;2023-04-24T16:54:53;98981.38;;;19.58;47.57
55759;BME280;41678;52.126;20.664;2023-04-24T17:00:13;98981.47;;;19.56;48.06
55759;BME280;41678;52.126;20.664;2023-04-24T17:05:33;98981.47;;;19.56;48.87
55759;BME280;41678;52.126;20.664;2023-04-24T17:10:52;98983.41;;;19.41;48.55
55759;BME280;41678;52.126;20.664;2023-04-24T17:16:12;98985.97;;;19.30;48.46
55759;BME280;41678;52.126;20.664;2023-04-24T17:21:31;98982.66;;;19.13;49.33
55759;BME280;41678;52.126;20.664;2023-04-24T17:26:52;98991.38;;;19.02;50.19
55759;BME280;41678;52.126;20.664;2023-04-24T17:32:12;98984.28;;;18.88;50.68
55759;BME280;41678;52.126;20.664;2023-04-24T17:37:32;98985.19;;;18.74;51.15
55759;BME280;41678;52.126;20.664;2023-04-24T17:42:52;98974.25;;;18.51;51.29
55759;BME280;41678;52.126;20.664;2023-04-24T17:48:12;98980.25;;;18.40;51.67
55759;BME280;41678;52.126;20.664;2023-04-24T17:53:32;98984.88;;;18.24;52.09
55759;BME280;41678;52.126;20.664;2023-04-24T17:58:51;98978.53;;;18.12;52.72
55759;BME280;41678;52.126;20.664;2023-04-24T18:04:11;98982.16;;;17.96;52.82
55759;BME280;41678;52.126;20.664;2023-04-24T18:09:31;98974.16;;;17.82;53.07
55759;BME280;41678;52.126;20.664;2023-04-24T18:14:51;98981.13;;;17.70;53.49
55759;BME280;41678;52.126;20.664;2023-04-24T18:20:15;98992.81;;;17.53;53.26
55759;BME280;41678;52.126;20.664;2023-04-24T18:25:34;98986.69;;;17.36;53.64
55759;BME280;41678;52.126;20.664;2023-04-24T18:30:54;98993.34;;;17.29;54.49
55759;BME280;41678;52.126;20.664;2023-04-24T18:36:13;98989.88;;;17.12;54.11
55759;BME280;41678;52.126;20.664;2023-04-24T18:41:33;98993.28;;;17.00;54.66
55759;BME280;41678;52.126;20.664;2023-04-24T18:46:53;99002.63;;;16.91;54.50
55759;BME280;41678;52.126;20.664;2023-04-24T18:52:13;99008.47;;;16.82;54.79
55759;BME280;41678;52.126;20.664;2023-04-24T18:57:32;99007.91;;;16.61;54.59
55759;BME280;41678;52.126;20.664;2023-04-24T19:02:52;99015.81;;;16.46;54.58
55759;BME280;41678;52.126;20.664;2023-04-24T19:08:13;99022.75;;;16.33;54.66
55759;BME280;41678;52.126;20.664;2023-04-24T19:13:32;99051.63;;;16.55;54.38
55759;BME280;41678;52.126;20.664;2023-04-24T19:18:52;99063.03;;;16.41;54.36
55759;BME280;41678;52.126;20.664;2023-04-24T19:24:11;99067.19;;;16.29;54.86
55759;BME280;41678;52.126;20.664;2023-04-24T19:29:31;99064.97;;;16.21;54.95
55759;BME280;41678;52.126;20.664;2023-04-24T19:34:51;99066.59;;;16.24;55.35
55759;BME280;41678;52.126;20.664;2023-04-24T19:40:11;99076.28;;;16.09;55.70
55759;BME280;41678;52.126;20.664;2023-04-24T19:45:31;99072.22;;;16.02;56.02
55759;BME280;41678;52.126;20.664;2023-04-24T19:50:51;99073.63;;;16.09;56.12
55759;BME280;41678;52.126;20.664;2023-04-24T19:56:11;99066.72;;;16.05;56.45
55759;BME280;41678;52.126;20.664;2023-04-24T20:01:31;99064.59;;;15.95;56.64
55759;BME280;41678;52.126;20.664;2023-04-24T20:06:51;99068.97;;;15.96;56.54
55759;BME280;41678;52.126;20.664;2023-04-24T20:12:10;99073.16;;;15.83;56.76
55759;BME280;41678;52.126;20.664;2023-04-24T20:17:30;99064.19;;;15.68;56.97
55759;BME280;41678;52.126;20.664;2023-04-24T20:22:50;99064.78;;;15.57;57.31
55759;BME280;41678;52.126;20.664;2023-04-24T20:28:09;99068.59;;;15.51;57.64
55759;BME280;41678;52.126;20.664;2023-04-24T20:33:29;99073.06;;;15.51;57.34
55759;BME280;41678;52.126;20.664;2023-04-24T20:38:48;99070.16;;;15.38;57.37
55759;BME280;41678;52.126;20.664;2023-04-24T20:44:08;99073.28;;;15.28;57.60
55759;BME280;41678;52.126;20.664;2023-04-24T20:49:27;99075.56;;;15.19;57.63
55759;BME280;41678;52.126;20.664;2023-04-24T20:54:46;99071.63;;;15.08;57.88
55759;BME280;41678;52.126;20.664;2023-04-24T21:00:07;99077.31;;;15.00;57.95
55759;BME280;41678;52.126;20.664;2023-04-24T21:05:27;99080.41;;;14.91;58.06
55759;BME280;41678;52.126;20.664;2023-04-24T21:10:46;99091.38;;;14.83;58.17
55759;BME280;41678;52.126;20.664;2023-04-24T21:16:06;99094.41;;;14.76;58.40
55759;BME280;41678;52.126;20.664;2023-04-24T21:21:25;99097.38;;;14.68;58.48
55759;BME280;41678;52.126;20.664;2023-04-24T21:26:45;99101.28;;;14.61;58.92
55759;BME280;41678;52.126;20.664;2023-04-24T21:32:05;99106.06;;;14.52;59.28
55759;BME280;41678;52.126;20.664;2023-04-24T21:37:25;99105.56;;;14.44;59.22
55759;BME280;41678;52.126;20.664;2023-04-24T21:42:45;99104.91;;;14.39;58.91
55759;BME280;41678;52.126;20.664;2023-04-24T21:48:05;99091.19;;;14.30;59.14
55759;BME280;41678;52.126;20.664;2023-04-24T21:53:24;99093.03;;;14.28;59.49
55759;BME280;41678;52.126;20.664;2023-04-24T21:58:44;99095.16;;;14.20;59.36
55759;BME280;41678;52.126;20.664;2023-04-24T22:04:04;99095.88;;;14.05;60.25
55759;BME280;41678;52.126;20.664;2023-04-24T22:09:24;99100.56;;;13.98;60.29
55759;BME280;41678;52.126;20.664;2023-04-24T22:14:44;99099.72;;;13.97;60.17
55759;BME280;41678;52.126;20.664;2023-04-24T22:20:04;99103.22;;;13.98;59.95
55759;BME280;41678;52.126;20.664;2023-04-24T22:25:25;99094.84;;;13.88;59.89
55759;BME280;41678;52.126;20.664;2023-04-24T22:30:45;99085.97;;;13.89;59.56
55759;BME280;41678;52.126;20.664;2023-04-24T22:36:04;99094.84;;;13.88;60.00
55759;BME280;41678;52.126;20.664;2023-04-24T22:41:25;99094.31;;;13.80;60.35
55759;BME280;41678;52.126;20.664;2023-04-24T22:46:44;99092.66;;;13.77;60.17
55759;BME280;41678;52.126;20.664;2023-04-24T22:52:05;99097.22;;;13.73;60.27
55759;BME280;41678;52.126;20.664;2023-04-24T22:57:26;99091.44;;;13.65;60.47
55759;BME280;41678;52.126;20.664;2023-04-24T23:02:47;99091.63;;;13.60;61.18
55759;BME280;41678;52.126;20.664;2023-04-24T23:08:07;99092.59;;;13.58;60.78
55759;BME280;41678;52.126;20.664;2023-04-24T23:13:27;99081.19;;;13.57;60.64
55759;BME280;41678;52.126;20.664;2023-04-24T23:18:47;99075.66;;;13.62;61.04
55759;BME280;41678;52.126;20.664;2023-04-24T23:24:07;99077.81;;;13.54;62.33
55759;BME280;41678;52.126;20.664;2023-04-24T23:29:27;99066.69;;;13.45;62.16
55759;BME280;41678;52.126;20.664;2023-04-24T23:34:46;99055.28;;;13.45;62.00
55759;BME280;41678;52.126;20.664;2023-04-24T23:40:06;99064.13;;;13.44;61.84
55759;BME280;41678;52.126;20.664;2023-04-24T23:45:28;99063.25;;;13.43;61.92
55759;BME280;41678;52.126;20.664;2023-04-24T23:50:47;99062.50;;;13.40;61.86
55759;BME280;41678;52.126;20.664;2023-04-24T23:56:06;99063.50;;;13.37;61.89
